Time;durP1;ratioP1;P1;durP2;ratioP2;P2;SDS_P1;SDS_P2;PMS_P1;PMS_P2;Temp;Humidity;BMP_temperature;BMP_pressure;BME280_temperature;BME280_humidity;BME280_pressure;Samples;Min_cycle;Max_cycle;Signal;HPM_P1;HPM_P2
2022/11/05 00:09:46;;;;;;;11.13;3.55;;;;;;;;;;5041155;28;20082;-64
2022/11/05 00:17:43;;;;;;;12.07;3.83;;;;;;;;;;5040257;28;20481;-66
2022/11/05 00:20:12;;;;;;;8.40;4.15;;;;;;;;;;5052183;28;20122;-64
2022/11/05 00:25:24;;;;;;;11.80;4.78;;;;;;;;;;5038851;28;20048;-64
2022/11/05 00:27:52;;;;;;;9.52;4.93;;;;;;;;;;5038605;28;20117;-64
2022/11/05 00:30:23;;;;;;;12.48;5.20;;;;;;;;;;5038900;28;20033;-66
2022/11/05 00:32:51;;;;;;;12.13;4.35;;;;;;;;;;5046962;28;20098;-64
2022/11/05 00:35:18;;;;;;;13.77;4.68;;;;;;;;;;5037926;28;20041;-64
2022/11/05 00:37:45;;;;;;;8.05;3.97;;;;;;;;;;5037287;28;20045;-64
2022/11/05 00:40:12;;;;;;;13.40;4.75;;;;;;;;;;5037812;28;20528;-64
2022/11/05 00:45:27;;;;;;;8.27;3.90;;;;;;;;;;5038008;28;20090;-63
2022/11/05 00:50:38;;;;;;;8.25;3.90;;;;;;;;;;5040246;28;20246;-64
2022/11/05 00:53:05;;;;;;;8.93;3.75;;;;;;;;;;5040277;28;20143;-66
2022/11/05 00:55:36;;;;;;;10.45;4.05;;;;;;;;;;5038404;28;20052;-64
2022/11/05 00:58:05;;;;;;;13.00;4.00;;;;;;;;;;5040510;28;20051;-65
2022/11/05 01:00:33;;;;;;;11.98;4.40;;;;;;;;;;5046127;28;20049;-64
2022/11/05 01:03:10;;;;;;;11.75;4.60;;;;;;;;;;5040660;28;20086;-64
2022/11/05 01:05:41;;;;;;;15.02;4.65;;;;;;;;;;5044639;28;20037;-62
2022/11/05 01:08:08;;;;;;;9.05;4.47;;;;;;;;;;5040183;28;20382;-64
2022/11/05 01:10:55;;;;;;;12.60;4.05;;;;;;;;;;5030145;28;20878;-65
2022/11/05 01:13:23;;;;;;;7.57;3.72;;;;;;;;;;5031284;28;20060;-65
2022/11/05 01:15:50;;;;;;;7.47;3.72;;;;;;;;;;5030323;28;20494;-66
2022/11/05 01:18:17;;;;;;;7.45;3.10;;;;;;;;;;5030099;28;20045;-65
2022/11/05 01:20:44;;;;;;;7.85;3.22;;;;;;;;;;5028406;28;20144;-64
2022/11/05 01:23:11;;;;;;;8.35;2.72;;;;;;;;;;5029673;28;20533;-65
2022/11/05 01:25:37;;;;;;;7.80;3.17;;;;;;;;;;5029010;28;20089;-63
2022/11/05 01:28:04;;;;;;;7.75;3.22;;;;;;;;;;5029349;28;20750;-65
2022/11/05 01:30:31;;;;;;;13.23;3.70;;;;;;;;;;5029110;28;20399;-65
2022/11/05 01:32:58;;;;;;;9.82;3.45;;;;;;;;;;5029363;28;20068;-64
2022/11/05 01:35:25;;;;;;;11.45;4.10;;;;;;;;;;5028553;28;20235;-65
2022/11/05 01:37:51;;;;;;;8.95;4.00;;;;;;;;;;5029379;28;20037;-64
2022/11/05 01:40:19;;;;;;;8.27;4.78;;;;;;;;;;5026690;28;20880;-64
2022/11/05 01:42:46;;;;;;;11.07;3.75;;;;;;;;;;5035530;28;20029;-63
2022/11/05 01:45:15;;;;;;;10.50;3.95;;;;;;;;;;5038039;28;20032;-64
2022/11/05 01:47:45;;;;;;;8.32;3.55;;;;;;;;;;5037822;28;20107;-64
2022/11/05 01:50:49;;;;;;;10.38;4.43;;;;;;;;;;5044787;28;20040;-66
2022/11/05 01:53:42;;;;;;;11.02;3.97;;;;;;;;;;5045789;28;20272;-66
2022/11/05 01:56:14;;;;;;;13.48;3.63;;;;;;;;;;5027374;28;21067;-66
2022/11/05 01:58:53;;;;;;;8.15;3.70;;;;;;;;;;5045476;28;20753;-64
2022/11/05 02:01:19;;;;;;;10.40;3.60;;;;;;;;;;5048497;28;20049;-64
2022/11/05 02:03:48;;;;;;;7.65;3.67;;;;;;;;;;5045206;28;20944;-65
2022/11/05 02:06:17;;;;;;;8.02;3.40;;;;;;;;;;5046710;28;20053;-65
2022/11/05 02:08:46;;;;;;;6.78;3.47;;;;;;;;;;5044475;28;20036;-65
2022/11/05 02:11:14;;;;;;;10.48;3.63;;;;;;;;;;5043985;28;20464;-64
2022/11/05 02:13:40;;;;;;;8.13;3.85;;;;;;;;;;5042349;28;20040;-66
2022/11/05 02:16:16;;;;;;;7.68;3.35;;;;;;;;;;5040127;28;20063;-66
2022/11/05 02:19:07;;;;;;;5.53;3.00;;;;;;;;;;5042562;28;20052;-65
2022/11/05 02:22:03;;;;;;;8.00;2.85;;;;;;;;;;5039700;28;20603;-64
2022/11/05 02:24:48;;;;;;;9.68;2.72;;;;;;;;;;5035403;28;20069;-64
2022/11/05 02:27:14;;;;;;;9.43;2.53;;;;;;;;;;5036157;28;20041;-64
2022/11/05 02:29:59;;;;;;;5.60;2.45;;;;;;;;;;5044046;28;20111;-65
2022/11/05 02:32:26;;;;;;;5.35;2.60;;;;;;;;;;5036631;28;20113;-65
2022/11/05 02:35:00;;;;;;;5.75;2.50;;;;;;;;;;5039408;28;20040;-65
2022/11/05 02:37:27;;;;;;;9.10;2.75;;;;;;;;;;5040111;28;20041;-66
2022/11/05 02:40:01;;;;;;;8.63;3.15;;;;;;;;;;5040411;28;20045;-65
2022/11/05 02:42:27;;;;;;;;;;;;;;;;;;5038061;28;20039;-66
2022/11/05 02:44:59;;;;;;;7.75;3.17;;;;;;;;;;5048237;28;19974;-65
2022/11/05 02:47:32;;;;;;;8.48;2.95;;;;;;;;;;5038833;28;20041;-66
2022/11/05 02:50:02;;;;;;;7.10;2.25;;;;;;;;;;5039527;28;20044;-67
2022/11/05 02:52:33;;;;;;;7.72;2.38;;;;;;;;;;5042488;28;20115;-66
2022/11/05 02:55:05;;;;;;;7.18;2.60;;;;;;;;;;5043549;28;20037;-65
2022/11/05 02:57:35;;;;;;;6.05;2.65;;;;;;;;;;5041103;28;20045;-66
2022/11/05 03:00:04;;;;;;;5.03;2.25;;;;;;;;;;5022615;28;20580;-64
2022/11/05 03:02:31;;;;;;;6.07;2.35;;;;;;;;;;5021613;28;20490;-64
2022/11/05 03:04:58;;;;;;;9.93;2.63;;;;;;;;;;5042181;28;20052;-65
2022/11/05 03:07:35;;;;;;;9.23;2.58;;;;;;;;;;5041118;28;20049;-65
2022/11/05 03:10:01;;;;;;;7.90;3.17;;;;;;;;;;5041787;28;20045;-64
2022/11/05 03:12:34;;;;;;;8.18;2.88;;;;;;;;;;5041825;28;20076;-64
2022/11/05 03:15:16;;;;;;;12.65;4.05;;;;;;;;;;5040821;28;20130;-65
2022/11/05 03:17:42;;;;;;;8.20;3.75;;;;;;;;;;5042005;28;20504;-66
2022/11/05 03:20:29;;;;;;;8.23;3.95;;;;;;;;;;5039800;28;20049;-64
2022/11/05 03:23:02;;;;;;;8.48;3.40;;;;;;;;;;5040434;28;20044;-64
2022/11/05 03:25:30;;;;;;;7.80;3.85;;;;;;;;;;5049412;28;20036;-65
2022/11/05 03:27:59;;;;;;;8.25;3.50;;;;;;;;;;5043035;28;20037;-66
2022/11/05 03:30:26;;;;;;;5.80;3.10;;;;;;;;;;5043541;28;20120;-65
2022/11/05 03:33:01;;;;;;;7.43;3.03;;;;;;;;;;5049863;28;20148;-63
2022/11/05 03:35:30;;;;;;;5.97;2.42;;;;;;;;;;5046824;28;20084;-64
2022/11/05 03:38:00;;;;;;;7.43;3.10;;;;;;;;;;5041461;28;20512;-64
2022/11/05 03:40:29;;;;;;;7.05;3.08;;;;;;;;;;5041588;28;20123;-61
2022/11/05 03:42:57;;;;;;;5.93;3.00;;;;;;;;;;5042251;28;20206;-64
2022/11/05 03:45:33;;;;;;;5.80;2.90;;;;;;;;;;5038387;28;20120;-66
2022/11/05 03:48:01;;;;;;;7.22;3.50;;;;;;;;;;5038552;28;20037;-67
2022/11/05 03:50:27;;;;;;;4.97;2.80;;;;;;;;;;5039168;28;20038;-65
2022/11/05 03:52:58;;;;;;;6.43;3.00;;;;;;;;;;5039607;28;20045;-65
2022/11/05 03:55:28;;;;;;;6.85;2.65;;;;;;;;;;5038394;28;20045;-63
2022/11/05 03:57:55;;;;;;;6.38;2.75;;;;;;;;;;5040113;28;20469;-64
2022/11/05 04:00:22;;;;;;;8.30;3.22;;;;;;;;;;5041288;28;20075;-64
2022/11/05 04:02:49;;;;;;;7.25;3.00;;;;;;;;;;5042570;28;20064;-63
2022/11/05 04:05:15;;;;;;;6.05;3.03;;;;;;;;;;5041613;28;20041;-61
2022/11/05 04:13:26;;;;;;;9.68;2.78;;;;;;;;;;5042280;28;20056;-66
2022/11/05 04:18:39;;;;;;;7.07;3.00;;;;;;;;;;5038946;28;20056;-65
2022/11/05 04:24:10;;;;;;;5.57;2.72;;;;;;;;;;5041427;28;20246;-64
2022/11/05 04:26:37;;;;;;;7.93;3.17;;;;;;;;;;5023050;28;20025;-62
2022/11/05 04:31:49;;;;;;;6.10;3.33;;;;;;;;;;5019957;28;20947;-63
2022/11/05 04:34:17;;;;;;;5.90;3.22;;;;;;;;;;5044465;28;21781;-65
2022/11/05 04:36:45;;;;;;;7.70;3.38;;;;;;;;;;5038186;28;20121;-62
2022/11/05 04:39:12;;;;;;;7.00;3.58;;;;;;;;;;5041817;28;20041;-61
2022/11/05 04:41:38;;;;;;;10.10;3.88;;;;;;;;;;5039871;28;20068;-63
2022/11/05 04:44:05;;;;;;;7.10;3.53;;;;;;;;;;5040850;28;20044;-63
2022/11/05 04:46:31;;;;;;;11.43;4.43;;;;;;;;;;5040904;28;20060;-64
2022/11/05 04:48:58;;;;;;;9.20;4.00;;;;;;;;;;5050566;28;20549;-63
2022/11/05 04:51:26;;;;;;;10.45;4.82;;;;;;;;;;5041657;28;20067;-63
2022/11/05 04:53:53;;;;;;;11.43;4.75;;;;;;;;;;5041043;28;20051;-64
2022/11/05 04:56:25;;;;;;;8.57;3.75;;;;;;;;;;5028921;28;20037;-64
2022/11/05 04:58:52;;;;;;;7.53;3.13;;;;;;;;;;5039793;28;20049;-63
2022/11/05 05:01:20;;;;;;;7.47;3.42;;;;;;;;;;5045667;28;20076;-64
2022/11/05 05:03:47;;;;;;;7.90;3.30;;;;;;;;;;5031824;28;20335;-64
2022/11/05 05:06:13;;;;;;;5.22;3.05;;;;;;;;;;5040009;28;20050;-64
2022/11/05 05:08:40;;;;;;;7.53;3.50;;;;;;;;;;5038116;28;20104;-64
2022/11/05 05:11:08;;;;;;;8.30;4.30;;;;;;;;;;5037987;28;20612;-63
2022/11/05 05:13:35;;;;;;;10.75;4.40;;;;;;;;;;5037488;28;20037;-63
2022/11/05 05:16:06;;;;;;;9.07;4.15;;;;;;;;;;5039461;28;20033;-63
2022/11/05 05:18:33;;;;;;;12.65;4.97;;;;;;;;;;5039906;28;20124;-62
2022/11/05 05:23:47;;;;;;;10.73;5.18;;;;;;;;;;5020050;28;20049;-62
2022/11/05 05:26:14;;;;;;;9.18;4.75;;;;;;;;;;5027487;28;20375;-63
2022/11/05 05:28:40;;;;;;;8.73;4.70;;;;;;;;;;5038477;28;20052;-63
2022/11/05 05:31:08;;;;;;;12.90;5.07;;;;;;;;;;5042682;28;20110;-61
2022/11/05 05:33:34;;;;;;;12.73;5.05;;;;;;;;;;5038600;28;20089;-62
2022/11/05 05:36:01;;;;;;;10.00;4.32;;;;;;;;;;5037629;28;20060;-63
2022/11/05 05:38:28;;;;;;;7.13;4.18;;;;;;;;;;5037263;28;20036;-62
2022/11/05 05:40:58;;;;;;;11.10;4.90;;;;;;;;;;5040311;28;20044;-60
2022/11/05 05:43:25;;;;;;;13.35;4.38;;;;;;;;;;5037096;28;20037;-62
2022/11/05 05:45:51;;;;;;;10.52;4.50;;;;;;;;;;5038605;28;20033;-63
2022/11/05 05:48:18;;;;;;;10.25;4.80;;;;;;;;;;5038802;28;20135;-63
2022/11/05 05:50:44;;;;;;;9.27;3.92;;;;;;;;;;5036609;28;20068;-62
2022/11/05 05:53:11;;;;;;;9.38;4.90;;;;;;;;;;5038893;28;20094;-66
2022/11/05 05:55:37;;;;;;;13.75;5.30;;;;;;;;;;5036840;28;20064;-65
2022/11/05 05:58:04;;;;;;;10.52;5.07;;;;;;;;;;5038938;28;20490;-63
2022/11/05 06:00:31;;;;;;;13.00;5.53;;;;;;;;;;5036500;28;20573;-65
2022/11/05 06:02:57;;;;;;;8.60;4.70;;;;;;;;;;5038688;28;20041;-64
2022/11/05 06:05:24;;;;;;;13.85;5.22;;;;;;;;;;5036956;28;20059;-64
2022/11/05 06:07:57;;;;;;;10.75;5.38;;;;;;;;;;5038483;28;20040;-66
2022/11/05 06:10:24;;;;;;;10.88;4.93;;;;;;;;;;5036914;28;20128;-64
2022/11/05 06:12:51;;;;;;;16.73;5.60;;;;;;;;;;5039222;28;20886;-64
2022/11/05 06:15:17;;;;;;;14.73;4.78;;;;;;;;;;5037384;28;21762;-65
2022/11/05 06:17:44;;;;;;;12.38;5.68;;;;;;;;;;5035741;28;20034;-65
2022/11/05 06:20:11;;;;;;;11.57;4.32;;;;;;;;;;5047933;28;20054;-63
2022/11/05 06:22:38;;;;;;;8.93;4.38;;;;;;;;;;5037120;28;20041;-63
2022/11/05 06:25:06;;;;;;;8.30;4.25;;;;;;;;;;5038439;28;20037;-63
2022/11/05 06:27:32;;;;;;;10.95;4.45;;;;;;;;;;5036932;28;20095;-65
2022/11/05 06:29:59;;;;;;;11.40;4.88;;;;;;;;;;5039850;28;20532;-64
2022/11/05 06:32:26;;;;;;;10.57;4.43;;;;;;;;;;5044111;28;20051;-64
2022/11/05 06:34:52;;;;;;;9.38;4.70;;;;;;;;;;5036635;28;20040;-64
2022/11/05 06:37:19;;;;;;;7.72;4.40;;;;;;;;;;5037063;28;20040;-66
2022/11/05 06:39:45;;;;;;;8.65;4.32;;;;;;;;;;5037820;28;20043;-65
2022/11/05 06:42:12;;;;;;;9.23;3.78;;;;;;;;;;5036586;28;20040;-65
2022/11/05 06:44:39;;;;;;;8.93;4.60;;;;;;;;;;5015884;28;20084;-63
2022/11/05 06:47:05;;;;;;;8.13;3.78;;;;;;;;;;5036461;28;20134;-64
2022/11/05 06:49:32;;;;;;;10.85;4.10;;;;;;;;;;5036742;28;20041;-65
2022/11/05 06:51:58;;;;;;;9.75;4.45;;;;;;;;;;5036238;28;20839;-66
2022/11/05 06:54:25;;;;;;;8.98;4.00;;;;;;;;;;5036379;28;20045;-64
2022/11/05 06:56:51;;;;;;;10.60;3.80;;;;;;;;;;5037034;28;20052;-65
2022/11/05 06:59:18;;;;;;;7.05;4.10;;;;;;;;;;5034748;28;20450;-66
2022/11/05 07:01:45;;;;;;;6.63;3.92;;;;;;;;;;5039082;28;20056;-65
2022/11/05 07:04:12;;;;;;;9.75;4.05;;;;;;;;;;5038062;28;20094;-62
2022/11/05 07:06:38;;;;;;;8.65;4.35;;;;;;;;;;5027029;28;20137;-64
2022/11/05 07:09:05;;;;;;;7.60;4.20;;;;;;;;;;5038774;28;20069;-64
2022/11/05 07:11:31;;;;;;;7.20;3.65;;;;;;;;;;5036578;28;20039;-64
2022/11/05 07:14:00;;;;;;;9.23;3.40;;;;;;;;;;5035606;28;20049;-64
2022/11/05 07:16:26;;;;;;;9.60;3.63;;;;;;;;;;5036396;28;20128;-63
2022/11/05 07:18:54;;;;;;;11.15;3.80;;;;;;;;;;5038836;28;20616;-64
2022/11/05 07:21:21;;;;;;;10.52;3.60;;;;;;;;;;5016893;28;20049;-65
2022/11/05 07:23:48;;;;;;;9.88;3.60;;;;;;;;;;5025773;28;20588;-64
2022/11/05 07:26:15;;;;;;;10.98;3.30;;;;;;;;;;5019783;28;20189;-64
2022/11/05 07:28:41;;;;;;;6.45;3.50;;;;;;;;;;5017033;28;20033;-63
2022/11/05 07:31:08;;;;;;;8.85;3.67;;;;;;;;;;5032516;28;20045;-64
2022/11/05 07:33:35;;;;;;;9.57;3.33;;;;;;;;;;5036566;28;20056;-63
2022/11/05 07:36:01;;;;;;;6.78;3.42;;;;;;;;;;5037125;28;21032;-62
2022/11/05 07:38:28;;;;;;;7.35;3.63;;;;;;;;;;5038097;28;20131;-64
2022/11/05 07:40:54;;;;;;;8.45;3.97;;;;;;;;;;5041338;28;20456;-66
2022/11/05 07:43:21;;;;;;;7.22;3.47;;;;;;;;;;5041297;28;20045;-65
2022/11/05 07:45:48;;;;;;;9.80;3.30;;;;;;;;;;5041365;28;20040;-64
2022/11/05 07:48:14;;;;;;;6.70;3.30;;;;;;;;;;5041625;28;20397;-63
2022/11/05 07:50:41;;;;;;;7.90;3.53;;;;;;;;;;5041490;28;20076;-64
2022/11/05 07:53:10;;;;;;;11.18;3.50;;;;;;;;;;5050860;28;20096;-63
2022/11/05 07:55:36;;;;;;;7.40;3.22;;;;;;;;;;5029145;28;20041;-62
2022/11/05 07:58:04;;;;;;;6.78;3.17;;;;;;;;;;5020796;28;20036;-64
2022/11/05 08:00:31;;;;;;;10.95;3.30;;;;;;;;;;5019862;28;20506;-64
2022/11/05 08:03:05;;;;;;;10.25;3.50;;;;;;;;;;5022122;28;20044;-64
2022/11/05 08:05:35;;;;;;;6.68;3.40;;;;;;;;;;5019224;28;20045;-62
2022/11/05 08:08:02;;;;;;;12.00;4.00;;;;;;;;;;5036031;28;20041;-65
2022/11/05 08:10:29;;;;;;;11.27;3.95;;;;;;;;;;5040824;28;20053;-66
2022/11/05 08:12:56;;;;;;;9.23;3.97;;;;;;;;;;5025619;28;20537;-64
2022/11/05 08:15:23;;;;;;;8.57;3.67;;;;;;;;;;5043550;28;20034;-61
2022/11/05 08:17:50;;;;;;;9.57;4.13;;;;;;;;;;5035343;28;20037;-64
2022/11/05 08:20:17;;;;;;;8.18;4.00;;;;;;;;;;5039828;28;20048;-64
2022/11/05 08:22:44;;;;;;;6.70;3.50;;;;;;;;;;5047505;28;20048;-62
2022/11/05 08:25:11;;;;;;;7.63;3.38;;;;;;;;;;5037845;28;20033;-63
2022/11/05 08:27:39;;;;;;;6.20;3.13;;;;;;;;;;5039707;28;20053;-64
2022/11/05 08:30:06;;;;;;;8.93;3.42;;;;;;;;;;5042003;28;20058;-62
2022/11/05 08:32:32;;;;;;;11.07;3.47;;;;;;;;;;5058508;28;20132;-65
2022/11/05 08:34:59;;;;;;;6.25;3.38;;;;;;;;;;5039025;28;20041;-61
2022/11/05 08:37:26;;;;;;;7.38;2.83;;;;;;;;;;5046695;28;20510;-60
2022/11/05 08:39:52;;;;;;;6.45;2.95;;;;;;;;;;5044044;28;20141;-63
2022/11/05 08:42:19;;;;;;;8.15;3.20;;;;;;;;;;5030760;28;20060;-64
2022/11/05 08:44:45;;;;;;;5.55;2.88;;;;;;;;;;5040041;28;20029;-65
2022/11/05 08:47:12;;;;;;;6.63;3.17;;;;;;;;;;5053774;28;20849;-62
2022/11/05 08:49:38;;;;;;;8.55;3.20;;;;;;;;;;5037710;28;20051;-66
2022/11/05 08:52:05;;;;;;;8.82;2.80;;;;;;;;;;5055078;28;20040;-64
2022/11/05 08:54:31;;;;;;;8.60;3.47;;;;;;;;;;5044818;28;20048;-63
2022/11/05 08:56:58;;;;;;;6.82;3.30;;;;;;;;;;5041036;28;20040;-64
2022/11/05 08:59:25;;;;;;;6.75;2.80;;;;;;;;;;5036415;28;20041;-65
2022/11/05 09:01:52;;;;;;;9.25;2.60;;;;;;;;;;5040060;28;20037;-65
2022/11/05 09:04:19;;;;;;;6.68;2.28;;;;;;;;;;5040298;28;20041;-65
2022/11/05 09:06:46;;;;;;;5.18;2.58;;;;;;;;;;5040367;28;20079;-63
2022/11/05 09:09:12;;;;;;;6.70;2.78;;;;;;;;;;5039647;28;20064;-65
2022/11/05 09:11:39;;;;;;;7.25;2.65;;;;;;;;;;5038334;28;21918;-65
2022/11/05 09:14:06;;;;;;;7.40;2.55;;;;;;;;;;5038761;28;20129;-67
2022/11/05 09:16:35;;;;;;;6.53;2.03;;;;;;;;;;5039011;28;20033;-66
2022/11/05 09:19:03;;;;;;;3.50;1.60;;;;;;;;;;5046512;28;20563;-65
2022/11/05 09:21:30;;;;;;;4.50;1.67;;;;;;;;;;5037574;28;20037;-64
2022/11/05 09:23:57;;;;;;;3.83;1.65;;;;;;;;;;5042853;28;20071;-63
2022/11/05 09:26:23;;;;;;;4.15;0.95;;;;;;;;;;5037988;28;20037;-64
2022/11/05 09:28:50;;;;;;;2.50;0.77;;;;;;;;;;5038813;28;20048;-63
2022/11/05 09:31:17;;;;;;;2.63;0.93;;;;;;;;;;5046233;28;20041;-64
2022/11/05 09:33:43;;;;;;;2.17;0.82;;;;;;;;;;5039555;28;20045;-65
2022/11/05 09:36:10;;;;;;;2.35;0.88;;;;;;;;;;5039550;28;20251;-63
2022/11/05 09:38:37;;;;;;;3.85;1.08;;;;;;;;;;5040011;28;20088;-62
2022/11/05 09:41:16;;;;;;;2.00;1.20;;;;;;;;;;5039891;28;20553;-65
2022/11/05 09:43:46;;;;;;;3.28;1.10;;;;;;;;;;5040308;28;20041;-65
2022/11/05 09:46:26;;;;;;;4.57;1.13;;;;;;;;;;5037650;28;20052;-64
2022/11/05 09:48:55;;;;;;;4.45;1.23;;;;;;;;;;5040623;28;20413;-64
2022/11/05 09:51:22;;;;;;;3.72;1.20;;;;;;;;;;5037976;28;20042;-64
2022/11/05 09:53:49;;;;;;;3.85;1.52;;;;;;;;;;5036543;28;20068;-65
2022/11/05 09:56:20;;;;;;;3.35;1.40;;;;;;;;;;5037534;28;20111;-65
2022/11/05 09:58:53;;;;;;;3.40;1.42;;;;;;;;;;5020622;28;20374;-63
2022/11/05 10:01:25;;;;;;;4.38;1.67;;;;;;;;;;5039178;28;20056;-64
2022/11/05 10:03:55;;;;;;;2.38;0.88;;;;;;;;;;5041864;28;20044;-63
2022/11/05 10:06:24;;;;;;;2.65;1.23;;;;;;;;;;5038139;28;20041;-64
2022/11/05 10:09:02;;;;;;;4.28;2.40;;;;;;;;;;5032886;28;20055;-69
2022/11/05 10:11:32;;;;;;;4.78;2.63;;;;;;;;;;5035898;28;20044;-67
2022/11/05 10:14:03;;;;;;;4.22;2.22;;;;;;;;;;5039482;28;20120;-65
2022/11/05 10:16:29;;;;;;;7.28;3.63;;;;;;;;;;5039683;28;20033;-63
2022/11/05 10:18:59;;;;;;;4.10;2.33;;;;;;;;;;5041486;28;20034;-63
2022/11/05 10:21:26;;;;;;;10.48;5.00;;;;;;;;;;5051908;28;20041;-62
2022/11/05 10:23:52;;;;;;;9.73;5.03;;;;;;;;;;5047156;28;20901;-65
2022/11/05 10:26:20;;;;;;;9.32;4.90;;;;;;;;;;5044470;28;20048;-65
2022/11/05 10:28:47;;;;;;;6.93;4.00;;;;;;;;;;5045619;28;20041;-63
2022/11/05 10:31:15;;;;;;;5.57;3.22;;;;;;;;;;5051213;28;20051;-64
2022/11/05 10:33:47;;;;;;;8.88;5.10;;;;;;;;;;5040322;28;20111;-62
2022/11/05 10:36:39;;;;;;;7.05;4.53;;;;;;;;;;5060627;28;20047;-64
2022/11/05 10:39:13;;;;;;;5.50;3.45;;;;;;;;;;5041748;28;20051;-63
2022/11/05 10:42:03;;;;;;;9.35;5.43;;;;;;;;;;5045224;28;20164;-62
2022/11/05 10:44:32;;;;;;;5.70;3.30;;;;;;;;;;5016374;28;20056;-64
2022/11/05 10:46:59;;;;;;;8.77;4.78;;;;;;;;;;5043542;28;20040;-64
2022/11/05 10:49:33;;;;;;;10.93;6.15;;;;;;;;;;5044109;28;21469;-64
2022/11/05 10:52:05;;;;;;;10.73;6.93;;;;;;;;;;5047508;28;20493;-64
2022/11/05 10:54:34;;;;;;;9.35;6.28;;;;;;;;;;5031146;28;20060;-66
2022/11/05 10:57:00;;;;;;;11.65;7.03;;;;;;;;;;5045635;28;20049;-64
2022/11/05 10:59:28;;;;;;;18.60;6.32;;;;;;;;;;5043057;28;20051;-64
2022/11/05 11:01:55;;;;;;;7.03;3.75;;;;;;;;;;5038823;28;20502;-64
2022/11/05 11:04:24;;;;;;;11.77;6.05;;;;;;;;;;5037989;28;20048;-64
2022/11/05 11:06:52;;;;;;;11.57;6.13;;;;;;;;;;5040740;28;20466;-64
2022/11/05 11:09:24;;;;;;;14.57;8.45;;;;;;;;;;5038331;28;20072;-65
2022/11/05 11:12:12;;;;;;;16.27;10.32;;;;;;;;;;5038167;28;20036;-65
2022/11/05 11:14:39;;;;;;;17.65;10.45;;;;;;;;;;5042707;28;20194;-64
2022/11/05 11:17:17;;;;;;;19.02;10.90;;;;;;;;;;5050155;28;20130;-64
2022/11/05 11:19:43;;;;;;;11.40;6.05;;;;;;;;;;5022784;28;20037;-63
2022/11/05 11:22:14;;;;;;;15.50;7.20;;;;;;;;;;5020515;28;20065;-67
2022/11/05 11:24:42;;;;;;;16.95;9.77;;;;;;;;;;5023296;28;20485;-64
2022/11/05 11:27:11;;;;;;;15.80;8.27;;;;;;;;;;5024354;28;20117;-64
2022/11/05 11:29:39;;;;;;;16.63;9.38;;;;;;;;;;5020522;28;20060;-63
2022/11/05 11:32:12;;;;;;;15.38;9.75;;;;;;;;;;5028312;28;20623;-66
2022/11/05 11:34:39;;;;;;;16.13;10.20;;;;;;;;;;5041816;28;20057;-66
2022/11/05 11:37:10;;;;;;;18.50;11.00;;;;;;;;;;5040550;28;20059;-64
2022/11/05 11:39:38;;;;;;;18.80;12.93;;;;;;;;;;5042392;28;20049;-64
2022/11/05 11:42:11;;;;;;;19.08;11.75;;;;;;;;;;5039709;28;20041;-63
2022/11/05 11:44:42;;;;;;;21.15;12.82;;;;;;;;;;5041534;28;20037;-65
2022/11/05 11:47:13;;;;;;;15.15;11.30;;;;;;;;;;5041214;28;20036;-64
2022/11/05 11:49:49;;;;;;;22.08;13.38;;;;;;;;;;5022405;28;20505;-64
2022/11/05 11:52:18;;;;;;;9.32;7.47;;;;;;;;;;5040178;28;20124;-64
2022/11/05 11:54:45;;;;;;;17.48;11.50;;;;;;;;;;5042339;28;20160;-65
2022/11/05 11:57:29;;;;;;;17.45;11.38;;;;;;;;;;5039525;28;20041;-64
2022/11/05 11:59:56;;;;;;;19.23;11.73;;;;;;;;;;5018561;28;20042;-64
2022/11/05 12:02:41;;;;;;;13.57;8.48;;;;;;;;;;5039421;28;20044;-63
2022/11/05 12:05:19;;;;;;;20.27;13.15;;;;;;;;;;5045312;28;20033;-64
2022/11/05 12:07:56;;;;;;;11.43;7.78;;;;;;;;;;5042813;28;20037;-64
2022/11/05 12:10:29;;;;;;;12.38;8.77;;;;;;;;;;5041876;28;20053;-64
2022/11/05 12:12:58;;;;;;;21.95;14.57;;;;;;;;;;5039945;28;20052;-62
2022/11/05 12:15:43;;;;;;;15.55;10.07;;;;;;;;;;5039740;28;20075;-70
2022/11/05 12:18:16;;;;;;;12.27;9.10;;;;;;;;;;5040060;28;20588;-63
2022/11/05 12:20:55;;;;;;;17.05;10.13;;;;;;;;;;5039828;28;20049;-63
2022/11/05 12:23:40;;;;;;;24.67;13.15;;;;;;;;;;5039667;28;20040;-64
2022/11/05 12:26:25;;;;;;;19.73;13.43;;;;;;;;;;5041577;28;20102;-63
2022/11/05 12:28:53;;;;;;;20.98;13.85;;;;;;;;;;5034874;28;20056;-64
2022/11/05 12:31:33;;;;;;;22.95;15.80;;;;;;;;;;5060771;28;20933;-65
2022/11/05 12:34:00;;;;;;;20.90;15.60;;;;;;;;;;5031380;28;20822;-64
2022/11/05 12:36:29;;;;;;;20.63;15.00;;;;;;;;;;5040062;28;20037;-64
2022/11/05 12:39:08;;;;;;;15.40;11.38;;;;;;;;;;5027893;28;20052;-64
2022/11/05 12:41:46;;;;;;;22.38;16.02;;;;;;;;;;5019558;28;20524;-66
2022/11/05 12:44:18;;;;;;;18.25;13.35;;;;;;;;;;5042721;28;20515;-64
2022/11/05 12:46:53;;;;;;;16.07;9.70;;;;;;;;;;5038852;28;20044;-65
2022/11/05 12:49:38;;;;;;;17.30;11.27;;;;;;;;;;5038047;28;20052;-65
2022/11/05 12:52:04;;;;;;;16.88;11.23;;;;;;;;;;5040535;28;21650;-65
2022/11/05 12:54:31;;;;;;;10.35;7.28;;;;;;;;;;5037258;28;20045;-66
2022/11/05 12:56:59;;;;;;;14.52;8.85;;;;;;;;;;5024953;28;20042;-64
2022/11/05 12:59:33;;;;;;;14.07;9.20;;;;;;;;;;5039170;28;20457;-66
2022/11/05 13:02:18;;;;;;;13.60;7.43;;;;;;;;;;5038154;28;20505;-68
2022/11/05 13:04:53;;;;;;;17.05;10.98;;;;;;;;;;5038047;28;20583;-65
2022/11/05 13:07:39;;;;;;;23.13;14.45;;;;;;;;;;5039173;28;20067;-65
2022/11/05 13:10:21;;;;;;;13.50;9.98;;;;;;;;;;5037050;28;20061;-65
2022/11/05 13:12:53;;;;;;;11.20;7.10;;;;;;;;;;5025806;28;20056;-65
2022/11/05 13:15:39;;;;;;;20.77;15.77;;;;;;;;;;5050463;28;20073;-65
2022/11/05 13:18:10;;;;;;;16.42;10.43;;;;;;;;;;5055258;28;20574;-64
2022/11/05 13:20:39;;;;;;;16.45;12.13;;;;;;;;;;5037961;28;20091;-64
2022/11/05 13:23:13;;;;;;;10.07;7.22;;;;;;;;;;5041284;28;20029;-64
2022/11/05 13:25:44;;;;;;;15.43;11.25;;;;;;;;;;5045383;28;20509;-64
2022/11/05 13:28:23;;;;;;;16.33;12.40;;;;;;;;;;5041219;28;20045;-66
2022/11/05 13:30:51;;;;;;;14.43;10.13;;;;;;;;;;5044561;28;20037;-65
2022/11/05 13:33:24;;;;;;;12.25;7.40;;;;;;;;;;5044625;28;20466;-69
2022/11/05 13:38:58;;;;;;;13.05;9.75;;;;;;;;;;5042250;28;20060;-65
2022/11/05 13:41:43;;;;;;;15.35;11.10;;;;;;;;;;5038811;28;20381;-64
2022/11/05 13:44:15;;;;;;;12.45;7.82;;;;;;;;;;5036685;28;20132;-64
2022/11/05 13:47:00;;;;;;;11.18;6.95;;;;;;;;;;5038033;28;20094;-65
2022/11/05 13:49:39;;;;;;;16.08;10.82;;;;;;;;;;5039400;28;20052;-64
2022/11/05 13:52:17;;;;;;;14.48;10.05;;;;;;;;;;5045237;28;20049;-64
2022/11/05 13:55:02;;;;;;;17.90;12.45;;;;;;;;;;5026428;28;20056;-64
2022/11/05 13:57:32;;;;;;;16.73;9.98;;;;;;;;;;5037606;28;20040;-63
2022/11/05 14:00:05;;;;;;;11.30;7.97;;;;;;;;;;5038203;28;20047;-64
2022/11/05 14:02:40;;;;;;;21.20;13.05;;;;;;;;;;5035485;28;20046;-63
2022/11/05 14:05:07;;;;;;;9.52;6.18;;;;;;;;;;5037720;28;20505;-63
2022/11/05 14:07:43;;;;;;;19.77;10.35;;;;;;;;;;5037369;28;20041;-64
2022/11/05 14:10:17;;;;;;;15.07;8.60;;;;;;;;;;5037456;28;20151;-64
2022/11/05 14:12:43;;;;;;;;;;;;;;;;;;5039050;28;20048;-65
2022/11/05 14:15:20;;;;;;;20.25;12.27;;;;;;;;;;5037201;28;19958;-64
2022/11/05 14:18:02;;;;;;;27.90;15.15;;;;;;;;;;5035984;28;20037;-65
2022/11/05 14:20:31;;;;;;;18.77;10.35;;;;;;;;;;5038188;28;20041;-64
2022/11/05 14:23:16;;;;;;;18.63;11.07;;;;;;;;;;5036855;28;20518;-66
2022/11/05 14:25:43;;;;;;;19.05;10.48;;;;;;;;;;5037045;28;20426;-65
2022/11/05 14:28:28;;;;;;;17.52;10.98;;;;;;;;;;5036333;28;20041;-65
2022/11/05 14:30:55;;;;;;;18.08;10.40;;;;;;;;;;5037960;28;20049;-65
2022/11/05 14:33:24;;;;;;;20.42;11.27;;;;;;;;;;5037690;28;20848;-68
2022/11/05 14:35:52;;;;;;;14.57;8.13;;;;;;;;;;5037121;28;20033;-65
2022/11/05 14:38:25;;;;;;;14.98;9.15;;;;;;;;;;5034946;28;20609;-67
2022/11/05 14:40:58;;;;;;;16.33;8.88;;;;;;;;;;5036916;28;20224;-66
2022/11/05 14:43:26;;;;;;;13.50;9.27;;;;;;;;;;5036137;28;20114;-64
2022/11/05 14:45:56;;;;;;;17.80;9.48;;;;;;;;;;5037335;28;20197;-66
2022/11/05 14:48:41;;;;;;;19.73;11.73;;;;;;;;;;5036060;28;20501;-65
2022/11/05 14:51:26;;;;;;;27.02;16.33;;;;;;;;;;5037276;28;20852;-66
2022/11/05 14:54:00;;;;;;;18.95;11.10;;;;;;;;;;5038392;28;20049;-66
2022/11/05 14:56:27;;;;;;;24.90;13.73;;;;;;;;;;5036490;28;20168;-64
2022/11/05 14:59:14;;;;;;;25.38;14.75;;;;;;;;;;5037187;28;20102;-70
2022/11/05 15:01:40;;;;;;;18.05;10.90;;;;;;;;;;5035347;28;20046;-65
2022/11/05 15:04:16;;;;;;;15.63;8.15;;;;;;;;;;5038973;28;20176;-65
2022/11/05 15:07:03;;;;;;;19.40;11.68;;;;;;;;;;5037490;28;20581;-64
2022/11/05 15:09:29;;;;;;;16.17;7.93;;;;;;;;;;5005273;28;20045;-64
2022/11/05 15:11:56;;;;;;;13.93;8.32;;;;;;;;;;5038154;28;20453;-65
2022/11/05 15:14:27;;;;;;;15.30;9.52;;;;;;;;;;5037444;28;20478;-67
2022/11/05 15:16:55;;;;;;;20.95;10.95;;;;;;;;;;5038811;28;20803;-64
2022/11/05 15:19:41;;;;;;;20.70;11.57;;;;;;;;;;5036354;28;20066;-63
2022/11/05 15:22:12;;;;;;;25.90;13.07;;;;;;;;;;5038750;28;20044;-65
2022/11/05 15:24:41;;;;;;;18.98;10.90;;;;;;;;;;5036193;28;20091;-63
2022/11/05 15:27:26;;;;;;;23.45;13.05;;;;;;;;;;5036180;28;20041;-62
2022/11/05 15:29:53;;;;;;;15.55;9.00;;;;;;;;;;5036249;28;20041;-63
2022/11/05 15:32:23;;;;;;;19.08;10.90;;;;;;;;;;5036722;28;20056;-64
2022/11/05 15:34:53;;;;;;;23.90;13.20;;;;;;;;;;5038139;28;20143;-62
2022/11/05 15:37:25;;;;;;;20.65;12.93;;;;;;;;;;5035519;28;20056;-64